sensor_id;sensor_type;location;lat;lon;timestamp;temperature;humidity
20288;DHT22;10303;51.960;8.372;2023-03-23T00:01:27;15.90;99.90
20288;DHT22;10303;51.960;8.372;2023-03-23T00:03:56;15.90;99.90
20288;DHT22;10303;51.960;8.372;2023-03-23T00:06:26;15.90;99.90
20288;DHT22;10303;51.960;8.372;2023-03-23T00:08:54;15.90;99.90
20288;DHT22;10303;51.960;8.372;2023-03-23T00:11:26;15.80;99.90
20288;DHT22;10303;51.960;8.372;2023-03-23T00:13:56;15.70;99.90
20288;DHT22;10303;51.960;8.372;2023-03-23T00:16:31;15.70;99.90
20288;DHT22;10303;51.960;8.372;2023-03-23T00:19:00;15.70;99.90
20288;DHT22;10303;51.960;8.372;2023-03-23T00:21:30;15.60;99.90
20288;DHT22;10303;51.960;8.372;2023-03-23T00:24:04;15.60;99.90
20288;DHT22;10303;51.960;8.372;2023-03-23T00:26:43;15.60;99.90
20288;DHT22;10303;51.960;8.372;2023-03-23T00:29:17;15.60;99.90
20288;DHT22;10303;51.960;8.372;2023-03-23T00:31:49;15.60;99.90
20288;DHT22;10303;51.960;8.372;2023-03-23T00:34:25;15.60;99.90
20288;DHT22;10303;51.960;8.372;2023-03-23T00:36:58;15.60;99.90
20288;DHT22;10303;51.960;8.372;2023-03-23T00:39:27;15.50;99.90
20288;DHT22;10303;51.960;8.372;2023-03-23T00:41:54;15.60;99.90
20288;DHT22;10303;51.960;8.372;2023-03-23T00:44:30;15.40;99.90
20288;DHT22;10303;51.960;8.372;2023-03-23T00:47:00;15.40;99.90
20288;DHT22;10303;51.960;8.372;2023-03-23T00:49:27;15.50;99.90
20288;DHT22;10303;51.960;8.372;2023-03-23T00:51:55;15.50;99.90
20288;DHT22;10303;51.960;8.372;2023-03-23T00:54:24;15.50;99.90
20288;DHT22;10303;51.960;8.372;2023-03-23T00:56:51;15.50;99.90
20288;DHT22;10303;51.960;8.372;2023-03-23T00:59:18;15.40;99.90
20288;DHT22;10303;51.960;8.372;2023-03-23T01:01:45;15.40;99.90
20288;DHT22;10303;51.960;8.372;2023-03-23T01:04:12;15.40;99.90
20288;DHT22;10303;51.960;8.372;2023-03-23T01:06:42;15.40;99.90
20288;DHT22;10303;51.960;8.372;2023-03-23T01:09:14;15.50;99.90
20288;DHT22;10303;51.960;8.372;2023-03-23T01:11:45;15.50;99.90
20288;DHT22;10303;51.960;8.372;2023-03-23T01:14:14;15.50;99.90
20288;DHT22;10303;51.960;8.372;2023-03-23T01:16:42;15.40;99.90
20288;DHT22;10303;51.960;8.372;2023-03-23T01:19:09;15.40;99.90
20288;DHT22;10303;51.960;8.372;2023-03-23T01:21:36;15.40;99.90
20288;DHT22;10303;51.960;8.372;2023-03-23T01:24:03;15.50;99.90
20288;DHT22;10303;51.960;8.372;2023-03-23T01:26:29;15.40;99.90
20288;DHT22;10303;51.960;8.372;2023-03-23T01:28:55;15.40;99.90
20288;DHT22;10303;51.960;8.372;2023-03-23T01:31:23;15.30;99.90
20288;DHT22;10303;51.960;8.372;2023-03-23T01:33:51;15.30;99.90
20288;DHT22;10303;51.960;8.372;2023-03-23T01:36:21;15.40;99.90
20288;DHT22;10303;51.960;8.372;2023-03-23T01:38:57;15.40;99.90
20288;DHT22;10303;51.960;8.372;2023-03-23T01:41:24;15.50;99.90
20288;DHT22;10303;51.960;8.372;2023-03-23T01:44:05;15.60;99.90
20288;DHT22;10303;51.960;8.372;2023-03-23T01:46:44;15.50;99.90
20288;DHT22;10303;51.960;8.372;2023-03-23T01:49:21;15.40;99.90
20288;DHT22;10303;51.960;8.372;2023-03-23T01:52:19;15.50;99.90
20288;DHT22;10303;51.960;8.372;2023-03-23T01:54:52;15.50;99.90
20288;DHT22;10303;51.960;8.372;2023-03-23T01:57:23;15.50;99.90
20288;DHT22;10303;51.960;8.372;2023-03-23T01:59:58;15.50;99.90
20288;DHT22;10303;51.960;8.372;2023-03-23T02:02:51;15.50;99.90
20288;DHT22;10303;51.960;8.372;2023-03-23T02:05:28;15.50;99.90
20288;DHT22;10303;51.960;8.372;2023-03-23T02:08:04;15.60;99.90
20288;DHT22;10303;51.960;8.372;2023-03-23T02:10:35;15.60;99.90
20288;DHT22;10303;51.960;8.372;2023-03-23T02:13:03;15.60;99.90
20288;DHT22;10303;51.960;8.372;2023-03-23T02:19:12;15.60;99.90
20288;DHT22;10303;51.960;8.372;2023-03-23T02:34:38;15.60;99.90
20288;DHT22;10303;51.960;8.372;2023-03-23T02:37:13;15.60;99.90
20288;DHT22;10303;51.960;8.372;2023-03-23T02:39:56;15.60;99.90
20288;DHT22;10303;51.960;8.372;2023-03-23T02:42:33;15.50;99.90
20288;DHT22;10303;51.960;8.372;2023-03-23T02:45:07;15.60;99.90
20288;DHT22;10303;51.960;8.372;2023-03-23T02:47:38;15.60;99.90
20288;DHT22;10303;51.960;8.372;2023-03-23T02:50:08;15.50;99.90
20288;DHT22;10303;51.960;8.372;2023-03-23T02:52:40;15.40;99.90
20288;DHT22;10303;51.960;8.372;2023-03-23T02:55:10;15.50;99.90
20288;DHT22;10303;51.960;8.372;2023-03-23T02:57:38;15.40;99.90
20288;DHT22;10303;51.960;8.372;2023-03-23T03:00:06;15.40;99.90
20288;DHT22;10303;51.960;8.372;2023-03-23T03:02:38;15.40;99.90
20288;DHT22;10303;51.960;8.372;2023-03-23T03:08:36;15.30;99.90
20288;DHT22;10303;51.960;8.372;2023-03-23T03:11:16;15.30;99.90
20288;DHT22;10303;51.960;8.372;2023-03-23T03:16:49;15.30;99.90
20288;DHT22;10303;51.960;8.372;2023-03-23T03:19:29;15.30;99.90
20288;DHT22;10303;51.960;8.372;2023-03-23T03:21:59;15.30;99.90
20288;DHT22;10303;51.960;8.372;2023-03-23T03:24:36;15.30;99.90
20288;DHT22;10303;51.960;8.372;2023-03-23T03:27:05;15.30;99.90
20288;DHT22;10303;51.960;8.372;2023-03-23T03:29:47;15.20;99.90
20288;DHT22;10303;51.960;8.372;2023-03-23T03:32:20;15.30;99.90
20288;DHT22;10303;51.960;8.372;2023-03-23T03:34:50;15.40;99.90
20288;DHT22;10303;51.960;8.372;2023-03-23T03:37:18;15.30;99.90
20288;DHT22;10303;51.960;8.372;2023-03-23T03:39:48;15.50;99.90
20288;DHT22;10303;51.960;8.372;2023-03-23T03:42:14;15.30;99.90
20288;DHT22;10303;51.960;8.372;2023-03-23T03:44:40;15.30;99.90
20288;DHT22;10303;51.960;8.372;2023-03-23T03:47:06;15.30;99.90
20288;DHT22;10303;51.960;8.372;2023-03-23T03:49:32;15.30;99.90
20288;DHT22;10303;51.960;8.372;2023-03-23T03:51:58;15.30;99.90
20288;DHT22;10303;51.960;8.372;2023-03-23T03:54:34;15.40;99.90
20288;DHT22;10303;51.960;8.372;2023-03-23T03:57:00;15.30;99.90
20288;DHT22;10303;51.960;8.372;2023-03-23T03:59:50;15.30;99.90
20288;DHT22;10303;51.960;8.372;2023-03-23T04:02:16;15.30;99.90
20288;DHT22;10303;51.960;8.372;2023-03-23T04:04:49;15.30;99.90
20288;DHT22;10303;51.960;8.372;2023-03-23T04:07:17;15.40;99.90
20288;DHT22;10303;51.960;8.372;2023-03-23T04:09:45;15.30;99.90
20288;DHT22;10303;51.960;8.372;2023-03-23T04:12:16;15.30;99.90
20288;DHT22;10303;51.960;8.372;2023-03-23T04:15:08;15.30;99.90
20288;DHT22;10303;51.960;8.372;2023-03-23T04:17:35;15.20;99.90
20288;DHT22;10303;51.960;8.372;2023-03-23T04:20:04;15.30;99.90
20288;DHT22;10303;51.960;8.372;2023-03-23T04:22:46;15.20;99.90
20288;DHT22;10303;51.960;8.372;2023-03-23T04:25:19;15.30;99.90
20288;DHT22;10303;51.960;8.372;2023-03-23T04:27:51;15.20;99.90
20288;DHT22;10303;51.960;8.372;2023-03-23T04:30:22;15.20;99.90
20288;DHT22;10303;51.960;8.372;2023-03-23T04:33:10;15.20;99.90
20288;DHT22;10303;51.960;8.372;2023-03-23T04:35:45;15.10;99.90
20288;DHT22;10303;51.960;8.372;2023-03-23T04:38:18;15.20;99.90
20288;DHT22;10303;51.960;8.372;2023-03-23T04:40:52;15.20;99.90
20288;DHT22;10303;51.960;8.372;2023-03-23T04:43:31;15.20;99.90
20288;DHT22;10303;51.960;8.372;2023-03-23T04:46:04;15.20;99.90
20288;DHT22;10303;51.960;8.372;2023-03-23T04:48:34;15.10;99.90
20288;DHT22;10303;51.960;8.372;2023-03-23T04:51:09;15.10;99.90
20288;DHT22;10303;51.960;8.372;2023-03-23T04:53:38;15.00;99.90
20288;DHT22;10303;51.960;8.372;2023-03-23T04:56:05;15.10;99.90
20288;DHT22;10303;51.960;8.372;2023-03-23T04:58:37;15.10;99.90
20288;DHT22;10303;51.960;8.372;2023-03-23T05:01:22;15.10;99.90
20288;DHT22;10303;51.960;8.372;2023-03-23T05:04:13;15.20;99.90
20288;DHT22;10303;51.960;8.372;2023-03-23T05:06:42;15.20;99.90
20288;DHT22;10303;51.960;8.372;2023-03-23T05:09:16;15.10;99.90
20288;DHT22;10303;51.960;8.372;2023-03-23T05:11:43;15.20;99.90
20288;DHT22;10303;51.960;8.372;2023-03-23T05:14:09;15.20;99.90
20288;DHT22;10303;51.960;8.372;2023-03-23T05:16:37;15.10;99.90
20288;DHT22;10303;51.960;8.372;2023-03-23T05:19:04;15.10;99.90
20288;DHT22;10303;51.960;8.372;2023-03-23T05:21:32;15.10;99.90
20288;DHT22;10303;51.960;8.372;2023-03-23T05:23:59;15.10;99.90
20288;DHT22;10303;51.960;8.372;2023-03-23T05:26:27;15.20;99.90
20288;DHT22;10303;51.960;8.372;2023-03-23T05:29:06;15.10;99.90
20288;DHT22;10303;51.960;8.372;2023-03-23T05:31:40;15.20;99.90
20288;DHT22;10303;51.960;8.372;2023-03-23T05:34:06;15.10;99.90
20288;DHT22;10303;51.960;8.372;2023-03-23T05:36:55;15.20;99.90
20288;DHT22;10303;51.960;8.372;2023-03-23T05:39:32;15.10;99.90
20288;DHT22;10303;51.960;8.372;2023-03-23T05:42:27;15.10;99.90
20288;DHT22;10303;51.960;8.372;2023-03-23T05:45:03;15.10;99.90
20288;DHT22;10303;51.960;8.372;2023-03-23T05:47:30;15.10;99.90
20288;DHT22;10303;51.960;8.372;2023-03-23T05:50:02;15.10;99.90
20288;DHT22;10303;51.960;8.372;2023-03-23T05:52:30;15.10;99.90
20288;DHT22;10303;51.960;8.372;2023-03-23T05:54:58;15.30;99.90
20288;DHT22;10303;51.960;8.372;2023-03-23T05:57:24;15.00;99.90
20288;DHT22;10303;51.960;8.372;2023-03-23T06:00:04;15.10;99.90
20288;DHT22;10303;51.960;8.372;2023-03-23T06:02:47;15.10;99.90
20288;DHT22;10303;51.960;8.372;2023-03-23T06:05:20;15.10;99.90
20288;DHT22;10303;51.960;8.372;2023-03-23T06:07:52;15.10;99.90
20288;DHT22;10303;51.960;8.372;2023-03-23T06:10:19;15.10;99.90
20288;DHT22;10303;51.960;8.372;2023-03-23T06:12:53;15.40;99.90
20288;DHT22;10303;51.960;8.372;2023-03-23T06:15:32;15.10;99.90
20288;DHT22;10303;51.960;8.372;2023-03-23T06:17:59;15.20;99.90
20288;DHT22;10303;51.960;8.372;2023-03-23T06:20:35;15.30;99.90
20288;DHT22;10303;51.960;8.372;2023-03-23T06:23:16;15.20;99.90
20288;DHT22;10303;51.960;8.372;2023-03-23T06:25:43;15.20;99.90
20288;DHT22;10303;51.960;8.372;2023-03-23T06:28:11;15.20;99.90
20288;DHT22;10303;51.960;8.372;2023-03-23T06:30:41;15.20;99.90
20288;DHT22;10303;51.960;8.372;2023-03-23T06:33:08;15.20;99.90
20288;DHT22;10303;51.960;8.372;2023-03-23T06:35:53;15.20;99.90
20288;DHT22;10303;51.960;8.372;2023-03-23T06:38:31;15.30;99.90
20288;DHT22;10303;51.960;8.372;2023-03-23T06:40:57;15.40;99.90
20288;DHT22;10303;51.960;8.372;2023-03-23T06:43:25;15.40;99.90
20288;DHT22;10303;51.960;8.372;2023-03-23T06:45:51;15.40;99.90
20288;DHT22;10303;51.960;8.372;2023-03-23T06:48:49;15.50;99.90
20288;DHT22;10303;51.960;8.372;2023-03-23T06:51:18;15.50;99.90
20288;DHT22;10303;51.960;8.372;2023-03-23T06:53:48;15.60;99.90
20288;DHT22;10303;51.960;8.372;2023-03-23T06:56:14;15.60;99.90
20288;DHT22;10303;51.960;8.372;2023-03-23T06:58:42;15.60;99.90
20288;DHT22;10303;51.960;8.372;2023-03-23T07:01:08;15.60;99.90
20288;DHT22;10303;51.960;8.372;2023-03-23T07:03:41;15.50;99.90
20288;DHT22;10303;51.960;8.372;2023-03-23T07:06:10;15.60;99.90
20288;DHT22;10303;51.960;8.372;2023-03-23T07:08:45;15.60;99.90
20288;DHT22;10303;51.960;8.372;2023-03-23T07:11:16;15.60;99.90
20288;DHT22;10303;51.960;8.372;2023-03-23T07:13:42;15.60;99.90
20288;DHT22;10303;51.960;8.372;2023-03-23T07:16:09;15.70;99.90
20288;DHT22;10303;51.960;8.372;2023-03-23T07:18:37;15.70;99.90
20288;DHT22;10303;51.960;8.372;2023-03-23T07:21:05;15.70;99.90
20288;DHT22;10303;51.960;8.372;2023-03-23T07:23:32;15.70;99.90
20288;DHT22;10303;51.960;8.372;2023-03-23T07:26:02;15.70;99.90
20288;DHT22;10303;51.960;8.372;2023-03-23T07:28:37;15.80;99.90
20288;DHT22;10303;51.960;8.372;2023-03-23T07:31:16;15.80;99.90
20288;DHT22;10303;51.960;8.372;2023-03-23T07:33:43;15.80;99.90
20288;DHT22;10303;51.960;8.372;2023-03-23T07:36:10;15.80;99.90
20288;DHT22;10303;51.960;8.372;2023-03-23T07:38:37;15.80;99.90
20288;DHT22;10303;51.960;8.372;2023-03-23T07:41:05;15.90;99.90
20288;DHT22;10303;51.960;8.372;2023-03-23T07:43:31;15.90;99.90
20288;DHT22;10303;51.960;8.372;2023-03-23T07:46:10;16.00;99.90
20288;DHT22;10303;51.960;8.372;2023-03-23T07:48:54;15.90;99.90
20288;DHT22;10303;51.960;8.372;2023-03-23T07:51:25;16.00;99.90
20288;DHT22;10303;51.960;8.372;2023-03-23T07:53:51;16.00;99.90
20288;DHT22;10303;51.960;8.372;2023-03-23T07:56:36;16.10;99.90
20288;DHT22;10303;51.960;8.372;2023-03-23T07:59:11;16.00;99.90
20288;DHT22;10303;51.960;8.372;2023-03-23T08:01:39;16.00;99.90
20288;DHT22;10303;51.960;8.372;2023-03-23T08:04:23;16.10;99.90
20288;DHT22;10303;51.960;8.372;2023-03-23T08:07:08;16.10;99.90
20288;DHT22;10303;51.960;8.372;2023-03-23T08:09:49;16.10;99.90
20288;DHT22;10303;51.960;8.372;2023-03-23T08:12:27;16.20;99.90
20288;DHT22;10303;51.960;8.372;2023-03-23T08:15:13;16.10;99.90
20288;DHT22;10303;51.960;8.372;2023-03-23T08:18:03;16.20;99.90
20288;DHT22;10303;51.960;8.372;2023-03-23T08:20:56;16.10;99.90
20288;DHT22;10303;51.960;8.372;2023-03-23T08:23:36;16.10;99.90
20288;DHT22;10303;51.960;8.372;2023-03-23T08:26:22;16.10;99.90
20288;DHT22;10303;51.960;8.372;2023-03-23T08:29:14;16.10;99.90
20288;DHT22;10303;51.960;8.372;2023-03-23T08:32:02;16.10;99.90
20288;DHT22;10303;51.960;8.372;2023-03-23T08:34:28;16.20;99.90
20288;DHT22;10303;51.960;8.372;2023-03-23T08:37:10;16.10;99.90
20288;DHT22;10303;51.960;8.372;2023-03-23T08:40:14;16.20;99.90
20288;DHT22;10303;51.960;8.372;2023-03-23T08:42:52;16.10;99.90
20288;DHT22;10303;51.960;8.372;2023-03-23T08:45:44;16.00;99.90
20288;DHT22;10303;51.960;8.372;2023-03-23T08:48:10;16.10;99.90
20288;DHT22;10303;51.960;8.372;2023-03-23T08:51:03;16.10;99.90
20288;DHT22;10303;51.960;8.372;2023-03-23T08:53:48;16.10;99.90
20288;DHT22;10303;51.960;8.372;2023-03-23T08:56:43;16.10;99.90
20288;DHT22;10303;51.960;8.372;2023-03-23T08:59:28;16.10;99.90
20288;DHT22;10303;51.960;8.372;2023-03-23T09:02:15;16.20;99.90
20288;DHT22;10303;51.960;8.372;2023-03-23T09:04:48;16.20;99.90
20288;DHT22;10303;51.960;8.372;2023-03-23T09:07:43;16.30;99.90
20288;DHT22;10303;51.960;8.372;2023-03-23T09:10:12;16.20;99.90
20288;DHT22;10303;51.960;8.372;2023-03-23T09:12:40;16.20;99.90
20288;DHT22;10303;51.960;8.372;2023-03-23T09:15:08;16.20;99.90
20288;DHT22;10303;51.960;8.372;2023-03-23T09:17:37;16.30;99.90
20288;DHT22;10303;51.960;8.372;2023-03-23T09:20:11;16.20;99.90
20288;DHT22;10303;51.960;8.372;2023-03-23T09:22:40;16.30;99.90
20288;DHT22;10303;51.960;8.372;2023-03-23T09:25:09;16.40;99.90
20288;DHT22;10303;51.960;8.372;2023-03-23T09:27:37;16.30;99.90
20288;DHT22;10303;51.960;8.372;2023-03-23T09:30:11;16.40;99.90
20288;DHT22;10303;51.960;8.372;2023-03-23T09:32:38;16.50;99.90
20288;DHT22;10303;51.960;8.372;2023-03-23T09:35:06;16.50;99.90
20288;DHT22;10303;51.960;8.372;2023-03-23T09:37:35;16.50;99.90
20288;DHT22;10303;51.960;8.372;2023-03-23T09:40:06;16.60;99.90
20288;DHT22;10303;51.960;8.372;2023-03-23T09:45:41;16.60;99.90
20288;DHT22;10303;51.960;8.372;2023-03-23T09:48:24;16.60;99.90
20288;DHT22;10303;51.960;8.372;2023-03-23T09:54:28;16.60;99.90
20288;DHT22;10303;51.960;8.372;2023-03-23T09:56:59;16.60;99.90
20288;DHT22;10303;51.960;8.372;2023-03-23T09:59:34;16.70;99.90
20288;DHT22;10303;51.960;8.372;2023-03-23T10:02:14;16.70;99.90
20288;DHT22;10303;51.960;8.372;2023-03-23T10:04:53;16.70;99.90
20288;DHT22;10303;51.960;8.372;2023-03-23T10:07:25;16.70;99.90
20288;DHT22;10303;51.960;8.372;2023-03-23T10:09:55;16.80;99.90
20288;DHT22;10303;51.960;8.372;2023-03-23T10:13:17;16.70;99.90
20288;DHT22;10303;51.960;8.372;2023-03-23T10:15:33;16.80;99.90
20288;DHT22;10303;51.960;8.372;2023-03-23T10:18:13;16.80;99.90
20288;DHT22;10303;51.960;8.372;2023-03-23T10:20:56;16.80;99.90
20288;DHT22;10303;51.960;8.372;2023-03-23T10:23:40;16.90;99.90
20288;DHT22;10303;51.960;8.372;2023-03-23T10:29:39;17.00;99.90
20288;DHT22;10303;51.960;8.372;2023-03-23T10:32:20;17.00;99.90
20288;DHT22;10303;51.960;8.372;2023-03-23T10:35:05;16.90;99.90
20288;DHT22;10303;51.960;8.372;2023-03-23T10:37:39;17.10;99.90
20288;DHT22;10303;51.960;8.372;2023-03-23T10:40:18;17.10;99.90
20288;DHT22;10303;51.960;8.372;2023-03-23T10:42:51;17.10;99.90
20288;DHT22;10303;51.960;8.372;2023-03-23T10:45:23;16.90;99.90
20288;DHT22;10303;51.960;8.372;2023-03-23T10:50:42;16.60;99.90
20288;DHT22;10303;51.960;8.372;2023-03-23T10:53:17;16.10;99.90
20288;DHT22;10303;51.960;8.372;2023-03-23T10:55:55;15.30;99.90
20288;DHT22;10303;51.960;8.372;2023-03-23T10:58:33;14.80;99.90
20288;DHT22;10303;51.960;8.372;2023-03-23T11:01:03;13.60;99.90
20288;DHT22;10303;51.960;8.372;2023-03-23T11:03:43;13.00;99.90
20288;DHT22;10303;51.960;8.372;2023-03-23T11:06:26;12.40;99.90
20288;DHT22;10303;51.960;8.372;2023-03-23T11:09:08;12.10;99.90
20288;DHT22;10303;51.960;8.372;2023-03-23T11:11:39;12.30;99.90
20288;DHT22;10303;51.960;8.372;2023-03-23T11:14:17;12.30;99.90
20288;DHT22;10303;51.960;8.372;2023-03-23T11:16:54;12.40;99.90
20288;DHT22;10303;51.960;8.372;2023-03-23T11:19:26;12.40;99.90
20288;DHT22;10303;51.960;8.372;2023-03-23T11:22:08;12.50;99.90
20288;DHT22;10303;51.960;8.372;2023-03-23T11:24:45;12.70;99.90
20288;DHT22;10303;51.960;8.372;2023-03-23T11:27:14;13.00;99.90
20288;DHT22;10303;51.960;8.372;2023-03-23T11:30:00;13.10;99.90
20288;DHT22;10303;51.960;8.372;2023-03-23T11:32:34;13.30;99.90
20288;DHT22;10303;51.960;8.372;2023-03-23T11:35:04;13.60;99.90
20288;DHT22;10303;51.960;8.372;2023-03-23T11:37:40;13.60;99.90
20288;DHT22;10303;51.960;8.372;2023-03-23T11:45:24;13.70;99.90
20288;DHT22;10303;51.960;8.372;2023-03-23T11:48:21;13.80;99.90
20288;DHT22;10303;51.960;8.372;2023-03-23T11:51:49;13.90;99.90
20288;DHT22;10303;51.960;8.372;2023-03-23T11:56:58;13.70;99.90
20288;DHT22;10303;51.960;8.372;2023-03-23T11:59:31;13.40;99.90
20288;DHT22;10303;51.960;8.372;2023-03-23T12:02:20;13.60;99.90
20288;DHT22;10303;51.960;8.372;2023-03-23T12:14:36;13.70;99.90
20288;DHT22;10303;51.960;8.372;2023-03-23T12:25:52;14.00;99.90
20288;DHT22;10303;51.960;8.372;2023-03-23T12:34:45;14.10;99.90
20288;DHT22;10303;51.960;8.372;2023-03-23T12:41:28;13.80;99.90
20288;DHT22;10303;51.960;8.372;2023-03-23T12:43:48;14.00;99.90
20288;DHT22;10303;51.960;8.372;2023-03-23T12:49:36;14.10;99.90
20288;DHT22;10303;51.960;8.372;2023-03-23T12:52:18;14.20;99.90
20288;DHT22;10303;51.960;8.372;2023-03-23T13:03:58;14.00;99.90
20288;DHT22;10303;51.960;8.372;2023-03-23T13:06:46;14.20;99.90
20288;DHT22;10303;51.960;8.372;2023-03-23T13:09:20;14.10;99.90
20288;DHT22;10303;51.960;8.372;2023-03-23T13:11:49;14.20;99.90
20288;DHT22;10303;51.960;8.372;2023-03-23T13:20:33;14.30;99.90
20288;DHT22;10303;51.960;8.372;2023-03-23T13:25:54;14.40;99.90
20288;DHT22;10303;51.960;8.372;2023-03-23T13:28:32;14.40;99.90
20288;DHT22;10303;51.960;8.372;2023-03-23T13:31:21;14.50;99.90
20288;DHT22;10303;51.960;8.372;2023-03-23T13:34:45;14.50;99.90
20288;DHT22;10303;51.960;8.372;2023-03-23T13:37:03;14.60;99.90
20288;DHT22;10303;51.960;8.372;2023-03-23T13:39:34;14.60;99.90
20288;DHT22;10303;51.960;8.372;2023-03-23T13:47:45;14.70;99.90
20288;DHT22;10303;51.960;8.372;2023-03-23T13:50:25;14.80;99.90
20288;DHT22;10303;51.960;8.372;2023-03-23T13:52:55;14.80;99.90
20288;DHT22;10303;51.960;8.372;2023-03-23T14:06:01;15.10;99.90
20288;DHT22;10303;51.960;8.372;2023-03-23T14:11:01;15.10;99.90
20288;DHT22;10303;51.960;8.372;2023-03-23T14:16:32;15.30;99.90
20288;DHT22;10303;51.960;8.372;2023-03-23T14:21:56;15.50;99.90
20288;DHT22;10303;51.960;8.372;2023-03-23T14:27:01;15.50;99.90
20288;DHT22;10303;51.960;8.372;2023-03-23T14:29:39;15.80;99.90
20288;DHT22;10303;51.960;8.372;2023-03-23T14:32:07;15.60;99.90
20288;DHT22;10303;51.960;8.372;2023-03-23T14:34:38;15.60;99.90
20288;DHT22;10303;51.960;8.372;2023-03-23T14:37:04;15.60;99.90
20288;DHT22;10303;51.960;8.372;2023-03-23T14:39:37;15.60;99.90
20288;DHT22;10303;51.960;8.372;2023-03-23T14:42:11;15.70;99.90
20288;DHT22;10303;51.960;8.372;2023-03-23T14:44:42;15.60;99.90
20288;DHT22;10303;51.960;8.372;2023-03-23T14:49:46;15.80;99.90
20288;DHT22;10303;51.960;8.372;2023-03-23T14:52:17;15.80;99.90
20288;DHT22;10303;51.960;8.372;2023-03-23T14:54:46;15.80;99.90
20288;DHT22;10303;51.960;8.372;2023-03-23T14:57:18;15.90;99.90
20288;DHT22;10303;51.960;8.372;2023-03-23T14:59:51;15.90;99.90
20288;DHT22;10303;51.960;8.372;2023-03-23T15:02:26;16.00;99.90
20288;DHT22;10303;51.960;8.372;2023-03-23T15:05:02;16.10;99.90
20288;DHT22;10303;51.960;8.372;2023-03-23T15:07:36;16.20;99.90
20288;DHT22;10303;51.960;8.372;2023-03-23T15:10:08;16.20;99.90
20288;DHT22;10303;51.960;8.372;2023-03-23T15:12:38;16.20;99.90
20288;DHT22;10303;51.960;8.372;2023-03-23T15:15:07;16.20;99.90
20288;DHT22;10303;51.960;8.372;2023-03-23T15:17:46;16.20;99.90
20288;DHT22;10303;51.960;8.372;2023-03-23T15:20:25;16.40;99.90
20288;DHT22;10303;51.960;8.372;2023-03-23T15:22:54;16.30;99.90
20288;DHT22;10303;51.960;8.372;2023-03-23T15:25:21;16.40;99.90
20288;DHT22;10303;51.960;8.372;2023-03-23T15:27:55;16.30;99.90
20288;DHT22;10303;51.960;8.372;2023-03-23T15:33:14;16.30;99.90
20288;DHT22;10303;51.960;8.372;2023-03-23T15:35:48;16.50;99.90
20288;DHT22;10303;51.960;8.372;2023-03-23T15:40:52;16.30;99.90
20288;DHT22;10303;51.960;8.372;2023-03-23T15:45:58;16.40;99.90
20288;DHT22;10303;51.960;8.372;2023-03-23T15:48:45;16.40;99.90
20288;DHT22;10303;51.960;8.372;2023-03-23T15:51:16;16.50;99.90
20288;DHT22;10303;51.960;8.372;2023-03-23T15:53:44;16.60;99.90
20288;DHT22;10303;51.960;8.372;2023-03-23T15:56:12;16.50;99.90
20288;DHT22;10303;51.960;8.372;2023-03-23T15:58:39;16.60;99.90
20288;DHT22;10303;51.960;8.372;2023-03-23T16:01:12;16.70;99.90
20288;DHT22;10303;51.960;8.372;2023-03-23T16:03:49;16.70;99.90
20288;DHT22;10303;51.960;8.372;2023-03-23T16:06:25;16.70;99.90
20288;DHT22;10303;51.960;8.372;2023-03-23T16:08:53;16.80;99.90
20288;DHT22;10303;51.960;8.372;2023-03-23T16:11:22;16.70;99.90
20288;DHT22;10303;51.960;8.372;2023-03-23T16:13:50;16.70;99.90
20288;DHT22;10303;51.960;8.372;2023-03-23T16:16:18;16.70;99.90
20288;DHT22;10303;51.960;8.372;2023-03-23T16:18:48;16.80;99.90
20288;DHT22;10303;51.960;8.372;2023-03-23T16:21:15;16.80;99.90
20288;DHT22;10303;51.960;8.372;2023-03-23T16:23:41;16.80;99.90
20288;DHT22;10303;51.960;8.372;2023-03-23T16:26:09;16.80;99.90
20288;DHT22;10303;51.960;8.372;2023-03-23T16:28:35;16.70;99.90
20288;DHT22;10303;51.960;8.372;2023-03-23T16:31:02;16.80;99.90
20288;DHT22;10303;51.960;8.372;2023-03-23T16:33:28;16.80;99.90
20288;DHT22;10303;51.960;8.372;2023-03-23T16:35:54;16.80;99.90
20288;DHT22;10303;51.960;8.372;2023-03-23T16:38:21;16.80;99.90
20288;DHT22;10303;51.960;8.372;2023-03-23T16:40:47;16.80;99.90
20288;DHT22;10303;51.960;8.372;2023-03-23T16:43:13;16.90;99.90
20288;DHT22;10303;51.960;8.372;2023-03-23T16:45:42;16.90;99.90
20288;DHT22;10303;51.960;8.372;2023-03-23T16:48:10;16.90;99.90
20288;DHT22;10303;51.960;8.372;2023-03-23T16:50:38;16.90;99.90
20288;DHT22;10303;51.960;8.372;2023-03-23T16:53:06;16.90;99.90
20288;DHT22;10303;51.960;8.372;2023-03-23T16:55:34;17.00;99.90
20288;DHT22;10303;51.960;8.372;2023-03-23T16:58:01;16.90;99.90
20288;DHT22;10303;51.960;8.372;2023-03-23T17:00:29;16.80;99.90
20288;DHT22;10303;51.960;8.372;2023-03-23T17:02:55;16.80;99.90
20288;DHT22;10303;51.960;8.372;2023-03-23T17:05:24;16.80;99.90
20288;DHT22;10303;51.960;8.372;2023-03-23T17:07:52;16.80;99.90
20288;DHT22;10303;51.960;8.372;2023-03-23T17:10:23;16.80;99.90
20288;DHT22;10303;51.960;8.372;2023-03-23T17:12:52;16.80;99.90
20288;DHT22;10303;51.960;8.372;2023-03-23T17:15:19;16.80;99.90
20288;DHT22;10303;51.960;8.372;2023-03-23T17:17:45;16.80;99.90
20288;DHT22;10303;51.960;8.372;2023-03-23T17:20:12;16.80;99.90
20288;DHT22;10303;51.960;8.372;2023-03-23T17:22:39;16.70;99.90
20288;DHT22;10303;51.960;8.372;2023-03-23T17:25:06;16.70;99.90
20288;DHT22;10303;51.960;8.372;2023-03-23T17:27:34;16.60;99.90
20288;DHT22;10303;51.960;8.372;2023-03-23T17:30:01;16.70;99.90
20288;DHT22;10303;51.960;8.372;2023-03-23T17:32:28;16.60;99.90
20288;DHT22;10303;51.960;8.372;2023-03-23T17:34:54;16.60;99.90
20288;DHT22;10303;51.960;8.372;2023-03-23T17:37:20;16.60;99.90
20288;DHT22;10303;51.960;8.372;2023-03-23T17:39:47;16.60;99.90
20288;DHT22;10303;51.960;8.372;2023-03-23T17:42:13;16.60;99.90
20288;DHT22;10303;51.960;8.372;2023-03-23T17:44:39;16.70;99.90
20288;DHT22;10303;51.960;8.372;2023-03-23T17:47:06;16.50;99.90
20288;DHT22;10303;51.960;8.372;2023-03-23T17:49:32;16.50;99.90
20288;DHT22;10303;51.960;8.372;2023-03-23T17:51:58;16.50;99.90
20288;DHT22;10303;51.960;8.372;2023-03-23T17:54:25;16.40;99.90
20288;DHT22;10303;51.960;8.372;2023-03-23T17:56:52;16.40;99.90
20288;DHT22;10303;51.960;8.372;2023-03-23T17:59:18;16.50;99.90
20288;DHT22;10303;51.960;8.372;2023-03-23T18:01:44;16.40;99.90
20288;DHT22;10303;51.960;8.372;2023-03-23T18:04:13;16.50;99.90
20288;DHT22;10303;51.960;8.372;2023-03-23T18:06:39;16.40;99.90
20288;DHT22;10303;51.960;8.372;2023-03-23T18:09:05;16.40;99.90
20288;DHT22;10303;51.960;8.372;2023-03-23T18:11:31;16.40;99.90
20288;DHT22;10303;51.960;8.372;2023-03-23T18:13:57;16.40;99.90
20288;DHT22;10303;51.960;8.372;2023-03-23T18:16:25;16.30;99.90
20288;DHT22;10303;51.960;8.372;2023-03-23T18:18:51;16.30;99.90